Chester, ID (83421)

7:28 AM MDT on August 31, 2015 (GMT -0600)
Parkinson Seed Farm, Saint Anthony | | Change Station
CLOSE
Current Station
Personal Weather Station
Location: Ashton, ID
Elevation: 5358 ft
Nearby Weather Stations

Elev 5358 ft 43.94 °N, 111.48 °W | Updated 15 seconds ago

Clear
Clear
39.9 °F
Feels Like 40 °F
N
0.0
Wind Variable Wind from North
Gusts 1.0 mph

Today
High -- | Low -- °F
--% Chance of Precip.
Yesterday
High -- | Low -- °F
Precip. -- in
6:48 AM 8:04 PM
Waning Gibbous, 95% visible
Pressure 30.03 in
Visibility 10.0 miles
Clouds Clear
Windchill 40 °F
Dew Point 30 °F
Humidity 66%
Rainfall 0.00 in
Snow Depth Not available.
UV 0 out of 12
Pollen 8.70 out of 12
Air Quality Not available.
Flu Activity Not available.
METAR KRXE 311253Z AUTO 22004KT 10SM CLR 06/00 A3011 RMK AO2 SLP169 T00610000
Pressure 30.03 in
Visibility 10.0 miles
Clouds Clear
Windchill 40 °F
Dew Point 30 °F
Humidity 66%
Rainfall 0.00 in
Snow Depth Not available.
UV 0 out of 12
Pollen 8.70 out of 12
Air Quality Not available.
Flu Activity Not available.
METAR KRXE 311253Z AUTO 22004KT 10SM CLR 06/00 A3011 RMK AO2 SLP169 T00610000

10-Day Weather Forecast

×

Almanac

Astronomy

Aug. 31, 2015 Rise Set
Actual Time
Civil Twilight
Nautical Twilight
Astronomical Twilight
Moon
Length of Visible Light
Length of Day
Tomorrow will be .
, % of the Moon is Illuminated

Today's Extremes

State Highs State Lows

Community

WunderPhotos

Upload Photos

1,851,231 photos uploaded!

WunderBlogs® & News

Nearby

Air Quality

  Air Quality AQ Index Pollutant
Not available.

Snow Depth

Station Depth Elevation

Earthquake Activity

City Distance Mag. Time & Date
Minimum magnitude displayed is 2.5.

Coastal Water Temperatures

Place Temperature

Stations

Nearby Weather Stations

Station Location Temp. Windchill Dew Point Humidity Wind Precip. Elev Updated Type